createdAt,value
2019-03-23T00:00:56.568Z,32.83
2019-03-23T00:03:24.327Z,35.83
2019-03-23T00:05:51.025Z,37.15
2019-03-23T00:08:19.023Z,36.48
2019-03-23T00:10:45.933Z,34.60
2019-03-23T00:13:12.658Z,34.18
2019-03-23T00:15:39.397Z,34.10
2019-03-23T00:18:06.026Z,33.48
2019-03-23T00:20:32.726Z,33.05
2019-03-23T00:22:59.463Z,33.92
2019-03-23T00:25:26.140Z,33.98
2019-03-23T00:27:54.006Z,32.25
2019-03-23T00:30:20.682Z,32.08
2019-03-23T00:32:47.415Z,32.95
2019-03-23T00:35:14.082Z,32.30
2019-03-23T00:37:40.793Z,31.77
2019-03-23T00:40:08.702Z,30.20
2019-03-23T00:42:35.667Z,31.17
2019-03-23T00:45:04.791Z,30.10
2019-03-23T00:47:31.426Z,30.00
2019-03-23T00:49:58.097Z,29.07
2019-03-23T00:52:24.808Z,29.80
2019-03-23T00:54:51.589Z,29.63
2019-03-23T00:57:18.255Z,29.63
2019-03-23T00:59:45.014Z,29.48
2019-03-23T01:02:11.647Z,27.98
2019-03-23T01:04:38.342Z,28.65
2019-03-23T01:07:05.153Z,30.88
2019-03-23T01:09:31.813Z,29.32
2019-03-23T01:11:58.559Z,30.85
2019-03-23T01:14:25.293Z,30.97
2019-03-23T01:16:51.898Z,28.57
2019-03-23T01:19:18.651Z,28.07
2019-03-23T01:21:45.416Z,27.02
2019-03-23T01:24:12.074Z,27.80
2019-03-23T01:26:38.719Z,25.75
2019-03-23T01:29:05.473Z,26.77
2019-03-23T01:31:32.234Z,26.70
2019-03-23T01:33:58.964Z,25.17
2019-03-23T01:36:25.665Z,25.52
2019-03-23T01:38:52.275Z,25.60
2019-03-23T01:41:18.967Z,25.80
2019-03-23T01:43:45.751Z,25.43
2019-03-23T01:46:12.482Z,26.33
2019-03-23T01:48:39.188Z,25.45
2019-03-23T01:51:05.898Z,26.55
2019-03-23T01:53:32.515Z,25.75
2019-03-23T01:55:59.312Z,25.65
2019-03-23T01:58:26.022Z,27.10
2019-03-23T02:00:52.662Z,26.25
2019-03-23T02:03:19.407Z,25.90
2019-03-23T02:05:46.105Z,24.75
2019-03-23T02:08:12.769Z,23.90
2019-03-23T02:10:41.786Z,24.23
2019-03-23T02:13:09.065Z,25.00
2019-03-23T02:15:35.694Z,24.67
2019-03-23T02:18:02.394Z,24.35
2019-03-23T02:20:29.071Z,22.22
2019-03-23T02:22:55.726Z,22.52
2019-03-23T02:25:22.387Z,20.85
2019-03-23T02:27:49.233Z,20.50
2019-03-23T02:30:15.828Z,20.43
2019-03-23T02:32:42.511Z,20.90
2019-03-23T02:35:09.550Z,20.27
2019-03-23T02:37:37.215Z,20.32
2019-03-23T02:40:05.824Z,20.95
2019-03-23T02:42:32.627Z,21.37
2019-03-23T02:44:59.944Z,19.40
2019-03-23T02:47:26.599Z,20.20
2019-03-23T02:49:53.279Z,21.15
2019-03-23T02:52:19.890Z,21.52
2019-03-23T02:54:46.576Z,19.80
2019-03-23T02:57:13.272Z,20.40
2019-03-23T02:59:39.999Z,20.65
2019-03-23T03:02:06.701Z,20.37
2019-03-23T03:04:33.494Z,19.45
2019-03-23T03:07:00.287Z,20.32
2019-03-23T03:09:26.945Z,21.10
2019-03-23T03:11:53.707Z,21.33
2019-03-23T03:14:20.334Z,21.45
2019-03-23T03:16:47.081Z,21.33
2019-03-23T03:19:13.922Z,21.27
2019-03-23T03:21:41.783Z,21.77
2019-03-23T03:24:08.432Z,21.27
2019-03-23T03:26:35.134Z,22.15
2019-03-23T03:29:01.743Z,21.65
2019-03-23T03:31:28.418Z,22.35
2019-03-23T03:33:55.135Z,21.57
2019-03-23T03:36:21.772Z,19.95
2019-03-23T03:38:48.482Z,21.23
2019-03-23T03:41:15.197Z,21.25
2019-03-23T03:43:41.911Z,21.60
2019-03-23T03:46:09.494Z,21.37
2019-03-23T03:48:36.199Z,21.30
2019-03-23T03:51:02.829Z,21.30
2019-03-23T03:53:29.524Z,20.08
2019-03-23T03:55:56.264Z,21.50
2019-03-23T03:58:23.077Z,22.42
2019-03-23T04:00:49.837Z,21.48
2019-03-23T04:03:16.644Z,21.30
2019-03-23T04:05:43.285Z,21.73
2019-03-23T04:08:11.848Z,21.70
2019-03-23T04:10:38.628Z,22.62
2019-03-23T04:13:06.286Z,22.27
2019-03-23T04:15:32.919Z,23.55
2019-03-23T04:17:59.617Z,24.67
2019-03-23T04:20:26.354Z,24.82
2019-03-23T04:22:53.045Z,26.30
2019-03-23T04:25:19.716Z,26.12
2019-03-23T04:27:46.433Z,26.00
2019-03-23T04:30:14.377Z,24.45
2019-03-23T04:32:41.078Z,25.80
2019-03-23T04:35:08.007Z,25.75
2019-03-23T04:37:34.699Z,26.00
2019-03-23T04:40:01.549Z,22.07
2019-03-23T04:42:28.254Z,21.73
2019-03-23T04:44:55.028Z,20.77
2019-03-23T04:47:21.960Z,19.70
2019-03-23T04:49:49.690Z,19.85
2019-03-23T04:52:16.572Z,20.25
2019-03-23T04:54:43.284Z,19.55
2019-03-23T04:57:11.077Z,20.48
2019-03-23T04:59:37.779Z,20.10
2019-03-23T05:02:04.660Z,19.17
2019-03-23T05:04:31.402Z,19.05
2019-03-23T05:06:58.117Z,19.55
2019-03-23T05:09:24.814Z,19.23
2019-03-23T05:11:51.453Z,20.27
2019-03-23T05:14:18.409Z,19.80
2019-03-23T05:16:46.242Z,20.02
2019-03-23T05:19:12.942Z,20.02
2019-03-23T05:21:39.646Z,20.72
2019-03-23T05:24:06.431Z,20.60
2019-03-23T05:26:33.078Z,19.75
2019-03-23T05:28:59.914Z,20.70
2019-03-23T05:31:26.643Z,20.02
2019-03-23T05:33:53.351Z,21.60
2019-03-23T05:36:20.099Z,20.32
2019-03-23T05:38:46.834Z,20.40
2019-03-23T05:41:13.449Z,18.52
2019-03-23T05:43:40.150Z,18.87
2019-03-23T05:46:06.875Z,18.02
2019-03-23T05:48:34.397Z,17.05
2019-03-23T05:51:01.093Z,16.55
2019-03-23T05:53:27.776Z,16.85
2019-03-23T05:55:54.461Z,16.10
2019-03-23T05:58:21.155Z,15.80
2019-03-23T06:00:47.840Z,18.17
2019-03-23T06:03:14.537Z,16.32
2019-03-23T06:05:41.239Z,15.58
2019-03-23T06:08:07.958Z,16.93
2019-03-23T06:10:34.694Z,15.80
2019-03-23T06:13:01.433Z,18.70
2019-03-23T06:15:28.108Z,16.95
2019-03-23T06:17:54.864Z,16.05
2019-03-23T06:20:21.567Z,16.82
2019-03-23T06:22:48.360Z,17.73
2019-03-23T06:25:14.993Z,17.27
2019-03-23T06:27:41.771Z,17.75
2019-03-23T06:30:09.876Z,16.85
2019-03-23T06:32:36.607Z,17.20
2019-03-23T06:35:03.909Z,17.17
2019-03-23T06:37:30.654Z,17.27
2019-03-23T06:39:57.265Z,16.70
2019-03-23T06:42:23.939Z,17.02
2019-03-23T06:44:50.610Z,18.15
2019-03-23T06:47:17.298Z,17.15
2019-03-23T06:49:44.061Z,17.65
2019-03-23T06:52:10.803Z,18.05
2019-03-23T06:54:37.408Z,17.95
2019-03-23T06:57:04.074Z,19.73
2019-03-23T06:59:30.775Z,19.87
2019-03-23T07:01:57.498Z,21.15
2019-03-23T07:04:26.573Z,21.27
2019-03-23T07:06:52.867Z,20.85
2019-03-23T07:09:19.496Z,21.35
2019-03-23T07:11:46.395Z,21.23
2019-03-23T07:14:13.094Z,22.02
2019-03-23T07:16:39.839Z,21.25
2019-03-23T07:19:06.469Z,23.83
2019-03-23T07:21:33.232Z,22.95
2019-03-23T07:23:59.834Z,22.87
2019-03-23T07:26:26.549Z,23.02
2019-03-23T07:28:53.222Z,22.07
2019-03-23T07:31:19.884Z,23.00
2019-03-23T07:33:46.562Z,21.95
2019-03-23T07:36:13.266Z,23.30
2019-03-23T07:38:39.867Z,22.65
2019-03-23T07:41:06.658Z,23.05
2019-03-23T07:43:33.357Z,23.52
2019-03-23T07:45:59.997Z,24.43
2019-03-23T07:48:28.461Z,25.25
2019-03-23T07:50:55.962Z,25.05
2019-03-23T07:53:22.720Z,23.47
2019-03-23T07:55:49.431Z,24.07
2019-03-23T07:58:16.132Z,23.90
2019-03-23T08:00:42.778Z,24.65
2019-03-23T08:03:09.476Z,24.87
2019-03-23T08:05:36.207Z,23.22
2019-03-23T08:08:02.942Z,24.00
2019-03-23T08:10:32.266Z,23.20
2019-03-23T08:12:59.090Z,22.13
2019-03-23T08:15:25.726Z,21.82
2019-03-23T08:17:52.427Z,21.95
2019-03-23T08:20:19.311Z,21.52
2019-03-23T08:22:45.969Z,22.07
2019-03-23T08:25:12.770Z,20.32
2019-03-23T08:27:41.598Z,20.92
2019-03-23T08:30:08.034Z,19.92
2019-03-23T08:32:34.654Z,17.95
2019-03-23T08:35:01.379Z,19.62
2019-03-23T08:37:28.068Z,19.27
2019-03-23T08:39:54.741Z,19.23
2019-03-23T08:42:21.417Z,19.60
2019-03-23T08:44:48.123Z,19.10
2019-03-23T08:47:14.774Z,19.40
2019-03-23T08:49:41.473Z,18.80
2019-03-23T08:52:09.095Z,19.27
2019-03-23T08:54:35.765Z,19.02
2019-03-23T08:57:02.402Z,19.40
2019-03-23T08:59:29.165Z,20.12
2019-03-23T09:01:55.865Z,18.98
2019-03-23T09:04:22.531Z,19.23
2019-03-23T09:06:49.266Z,18.67
2019-03-23T09:09:15.907Z,19.62
2019-03-23T09:11:42.574Z,19.70
2019-03-23T09:14:09.285Z,19.35
2019-03-23T09:16:35.883Z,19.20
2019-03-23T09:19:02.583Z,18.32
2019-03-23T09:21:29.275Z,19.02
2019-03-23T09:23:55.980Z,17.92
2019-03-23T09:26:22.713Z,16.97
2019-03-23T09:28:49.455Z,16.45
2019-03-23T09:31:16.087Z,16.17
2019-03-23T09:33:42.755Z,16.82
2019-03-23T09:36:09.493Z,17.87
2019-03-23T09:38:36.268Z,15.55
2019-03-23T09:41:03.061Z,14.38
2019-03-23T09:43:29.781Z,15.63
2019-03-23T09:45:56.417Z,15.00
2019-03-23T09:48:23.083Z,16.27
2019-03-23T09:50:49.799Z,15.68
2019-03-23T09:53:16.586Z,16.12
2019-03-23T09:55:43.401Z,16.97
2019-03-23T09:58:10.193Z,16.50
2019-03-23T10:00:36.816Z,17.07
2019-03-23T10:03:03.494Z,15.60
2019-03-23T10:05:30.186Z,14.47
2019-03-23T10:07:56.834Z,16.65
2019-03-23T10:10:23.541Z,16.62
2019-03-23T10:12:50.245Z,16.40
2019-03-23T10:15:16.913Z,16.45
2019-03-23T10:17:43.617Z,16.50
2019-03-23T10:20:10.947Z,15.85
2019-03-23T10:22:37.562Z,16.90
2019-03-23T10:25:05.340Z,16.17
2019-03-23T10:27:32.027Z,17.45
2019-03-23T10:29:58.658Z,15.80
2019-03-23T10:32:25.336Z,16.75
2019-03-23T10:34:52.070Z,16.15
2019-03-23T10:37:18.774Z,16.82
2019-03-23T10:39:45.438Z,15.95
2019-03-23T10:42:12.246Z,16.17
2019-03-23T10:44:38.917Z,15.35
2019-03-23T10:47:05.570Z,14.78
2019-03-23T10:49:32.255Z,16.70
2019-03-23T10:51:58.891Z,15.45
2019-03-23T10:54:25.653Z,16.52
2019-03-23T10:56:52.326Z,16.17
2019-03-23T10:59:19.052Z,15.90
2019-03-23T11:01:45.796Z,16.23
2019-03-23T11:04:13.570Z,14.98
2019-03-23T11:06:40.174Z,15.68
2019-03-23T11:09:06.868Z,16.25
2019-03-23T11:11:33.589Z,15.88
2019-03-23T11:14:00.534Z,15.93
2019-03-23T11:16:27.236Z,16.32
2019-03-23T11:18:53.970Z,14.23
2019-03-23T11:21:20.582Z,14.65
2019-03-23T11:23:47.259Z,16.57
2019-03-23T11:26:13.953Z,15.53
2019-03-23T11:28:40.678Z,15.13
2019-03-23T11:31:07.413Z,15.63
2019-03-23T11:33:34.175Z,15.58
2019-03-23T11:36:00.795Z,15.00
2019-03-23T11:38:27.486Z,15.15
2019-03-23T11:40:55.329Z,15.28
2019-03-23T11:43:22.214Z,14.18
2019-03-23T11:45:48.945Z,14.63
2019-03-23T11:48:15.612Z,14.70
2019-03-23T11:50:42.264Z,12.58
2019-03-23T11:53:08.929Z,12.18
2019-03-23T11:55:35.903Z,10.75
2019-03-23T11:58:02.831Z,11.25
2019-03-23T12:00:29.555Z,11.90
2019-03-23T12:02:56.303Z,9.73
2019-03-23T12:05:22.917Z,9.10
2019-03-23T12:07:49.599Z,9.63
2019-03-23T12:10:16.309Z,8.50
2019-03-23T12:12:43.057Z,8.13
2019-03-23T12:15:11.306Z,7.80
2019-03-23T12:17:38.263Z,9.10
2019-03-23T12:20:06.084Z,8.93
2019-03-23T12:22:32.782Z,9.13
2019-03-23T12:24:59.481Z,7.72
2019-03-23T12:27:26.117Z,8.38
2019-03-23T12:29:52.770Z,8.38
2019-03-23T12:32:19.506Z,8.20
2019-03-23T12:34:46.118Z,8.50
2019-03-23T12:37:12.800Z,8.23
2019-03-23T12:39:39.485Z,7.85
2019-03-23T12:42:06.129Z,8.10
2019-03-23T12:44:32.814Z,7.90
2019-03-23T12:46:59.588Z,7.83
2019-03-23T12:49:26.398Z,8.30
2019-03-23T12:51:53.215Z,8.15
2019-03-23T12:54:21.061Z,7.85
2019-03-23T12:56:47.747Z,8.80
2019-03-23T12:59:14.414Z,8.30
2019-03-23T13:01:41.098Z,7.87
2019-03-23T13:04:07.740Z,8.60
2019-03-23T13:06:34.433Z,7.58
2019-03-23T13:09:01.142Z,8.63
2019-03-23T13:11:34.892Z,9.38
2019-03-23T13:13:58.285Z,8.13
2019-03-23T13:16:25.171Z,8.03
2019-03-23T13:18:51.850Z,7.70
2019-03-23T13:21:18.697Z,7.33
2019-03-23T13:23:45.375Z,7.95
2019-03-23T13:26:12.110Z,9.20
2019-03-23T13:28:38.871Z,11.40
2019-03-23T13:31:05.620Z,8.70
2019-03-23T13:33:33.273Z,8.15
2019-03-23T13:35:59.975Z,7.78
2019-03-23T13:38:26.686Z,8.20
2019-03-23T13:40:53.385Z,6.90
2019-03-23T13:43:20.101Z,8.13
2019-03-23T13:45:46.835Z,8.58
2019-03-23T13:48:13.463Z,8.90
2019-03-23T13:50:40.141Z,7.97
2019-03-23T13:53:06.889Z,8.08
2019-03-23T13:55:34.022Z,8.63
2019-03-23T13:58:09.295Z,8.53
2019-03-23T14:00:36.303Z,7.92
2019-03-23T14:03:03.017Z,7.17
2019-03-23T14:05:29.694Z,7.62
2019-03-23T14:07:56.361Z,7.83
2019-03-23T14:10:23.023Z,7.15
2019-03-23T14:12:49.663Z,6.72
2019-03-23T14:15:16.376Z,6.90
2019-03-23T14:17:43.987Z,7.20
2019-03-23T14:20:10.763Z,7.00
2019-03-23T14:22:37.465Z,7.35
2019-03-23T14:25:05.695Z,6.28
2019-03-23T14:27:32.355Z,7.22
2019-03-23T14:29:59.097Z,7.10
2019-03-23T14:32:25.721Z,6.70
2019-03-23T14:34:52.413Z,6.83
2019-03-23T14:37:19.090Z,6.78
2019-03-23T14:39:45.725Z,7.20
2019-03-23T14:42:12.377Z,6.22
2019-03-23T14:44:39.152Z,6.85
2019-03-23T14:47:05.923Z,6.15
2019-03-23T14:49:32.593Z,6.95
2019-03-23T14:51:59.302Z,6.75
2019-03-23T14:54:25.942Z,6.35
2019-03-23T14:56:52.681Z,6.72
2019-03-23T14:59:19.436Z,7.58
2019-03-23T15:01:46.148Z,7.15
2019-03-23T15:04:12.863Z,6.60
2019-03-23T15:06:39.588Z,6.67
2019-03-23T15:09:06.191Z,6.87
2019-03-23T15:11:32.910Z,6.40
2019-03-23T15:13:59.587Z,7.00
2019-03-23T15:16:26.308Z,6.30
2019-03-23T15:18:53.018Z,6.25
2019-03-23T15:21:19.762Z,6.55
2019-03-23T15:23:46.358Z,6.92
2019-03-23T15:26:13.007Z,6.62
2019-03-23T15:28:39.752Z,6.15
2019-03-23T15:31:06.393Z,6.10
2019-03-23T15:33:33.023Z,6.35
2019-03-23T15:35:59.720Z,6.10
2019-03-23T15:38:26.323Z,6.05
2019-03-23T15:40:52.960Z,6.47
2019-03-23T15:43:19.666Z,6.33
2019-03-23T15:45:46.267Z,6.35
2019-03-23T15:48:13.881Z,6.40
2019-03-23T15:50:40.561Z,6.20
2019-03-23T15:53:07.167Z,7.30
2019-03-23T15:55:33.797Z,7.05
2019-03-23T15:58:00.595Z,6.50
2019-03-23T16:00:27.404Z,6.10
2019-03-23T16:02:54.115Z,6.33
2019-03-23T16:05:20.830Z,6.05
2019-03-23T16:07:47.485Z,5.67
2019-03-23T16:10:14.227Z,6.50
2019-03-23T16:12:40.935Z,5.90
2019-03-23T16:15:09.876Z,5.83
2019-03-23T16:17:36.577Z,6.35
2019-03-23T16:20:06.904Z,5.80
2019-03-23T16:22:33.514Z,6.87
2019-03-23T16:25:00.313Z,6.00
2019-03-23T16:27:27.017Z,6.95
2019-03-23T16:29:53.652Z,6.58
2019-03-23T16:32:20.378Z,6.62
2019-03-23T16:34:47.051Z,5.78
2019-03-23T16:37:13.718Z,6.70
2019-03-23T16:39:40.352Z,6.85
2019-03-23T16:42:07.096Z,7.97
2019-03-23T16:44:33.706Z,8.93
2019-03-23T16:47:00.406Z,8.53
2019-03-23T16:49:27.082Z,9.83
2019-03-23T16:51:53.746Z,9.60
2019-03-23T16:54:20.411Z,11.10
2019-03-23T16:56:47.179Z,10.03
2019-03-23T16:59:13.792Z,10.85
2019-03-23T17:01:40.545Z,11.00
2019-03-23T17:04:07.256Z,9.35
2019-03-23T17:06:33.928Z,8.70
2019-03-23T17:09:00.580Z,8.80
2019-03-23T17:11:27.267Z,7.53
2019-03-23T17:13:53.897Z,8.63
2019-03-23T17:16:20.620Z,7.97
2019-03-23T17:18:47.300Z,7.80
2019-03-23T17:21:14.011Z,7.35
2019-03-23T17:23:40.744Z,7.78
2019-03-23T17:26:07.457Z,6.92
2019-03-23T17:28:34.063Z,7.95
2019-03-23T17:31:00.739Z,8.15
2019-03-23T17:33:27.414Z,7.87
2019-03-23T17:35:54.159Z,9.25
2019-03-23T17:38:20.863Z,16.07
2019-03-23T17:40:47.602Z,27.35
2019-03-23T17:43:14.206Z,18.67
2019-03-23T17:45:40.905Z,21.97
2019-03-23T17:48:07.599Z,18.62
2019-03-23T17:50:34.295Z,15.95
2019-03-23T17:53:01.010Z,17.57
2019-03-23T17:55:27.728Z,17.92
2019-03-23T17:57:54.357Z,20.92
2019-03-23T18:00:21.151Z,21.33
2019-03-23T18:02:47.907Z,23.55
2019-03-23T18:05:14.548Z,20.77
2019-03-23T18:07:41.525Z,22.07
2019-03-23T18:10:08.896Z,20.75
2019-03-23T18:12:35.544Z,19.60
2019-03-23T18:15:04.286Z,19.57
2019-03-23T18:17:31.050Z,27.65
2019-03-23T18:19:57.655Z,22.98
2019-03-23T18:22:24.337Z,21.82
2019-03-23T18:24:51.432Z,21.12
2019-03-23T18:27:18.075Z,20.77
2019-03-23T18:29:47.475Z,19.87
2019-03-23T18:32:14.375Z,17.70
2019-03-23T18:34:41.048Z,17.02
2019-03-23T18:37:07.705Z,17.87
2019-03-23T18:39:34.450Z,19.52
2019-03-23T18:42:01.100Z,18.92
2019-03-23T18:44:28.739Z,21.33
2019-03-23T18:46:55.441Z,25.35
2019-03-23T18:49:22.065Z,27.40
2019-03-23T18:51:48.733Z,27.22
2019-03-23T18:54:15.429Z,26.60
2019-03-23T18:56:42.157Z,24.87
2019-03-23T18:59:08.871Z,24.02
2019-03-23T19:01:35.600Z,23.90
2019-03-23T19:04:02.307Z,23.75
2019-03-23T19:06:28.951Z,24.32
2019-03-23T19:08:55.626Z,23.80
2019-03-23T19:11:22.303Z,23.00
2019-03-23T19:13:48.943Z,24.32
2019-03-23T19:16:15.657Z,23.87
2019-03-23T19:18:42.338Z,22.87
2019-03-23T19:21:09.009Z,23.95
2019-03-23T19:23:35.691Z,46.05
2019-03-23T19:26:02.363Z,38.13
2019-03-23T19:28:29.021Z,32.25
2019-03-23T19:30:55.770Z,27.02
2019-03-23T19:33:23.468Z,26.93
2019-03-23T19:35:50.146Z,24.00
2019-03-23T19:38:18.170Z,23.90
2019-03-23T19:40:45.104Z,23.25
2019-03-23T19:43:11.853Z,24.77
2019-03-23T19:45:38.538Z,27.10
2019-03-23T19:48:05.256Z,25.17
2019-03-23T19:50:32.031Z,26.87
2019-03-23T19:52:58.733Z,26.10
2019-03-23T19:55:25.366Z,27.52
2019-03-23T19:57:54.617Z,28.35
2019-03-23T20:00:20.998Z,28.27
2019-03-23T20:02:48.658Z,28.75
2019-03-23T20:05:15.413Z,27.60
2019-03-23T20:07:42.124Z,28.02
2019-03-23T20:10:09.472Z,26.95
2019-03-23T20:12:36.205Z,27.05
2019-03-23T20:15:06.030Z,27.32
2019-03-23T20:17:32.672Z,27.10
2019-03-23T20:19:59.266Z,26.15
2019-03-23T20:22:25.979Z,28.90
2019-03-23T20:24:52.627Z,26.68
2019-03-23T20:27:20.350Z,27.20
2019-03-23T20:29:47.067Z,27.35
2019-03-23T20:32:13.697Z,27.82
2019-03-23T20:34:40.298Z,26.68
2019-03-23T20:37:08.333Z,27.13
2019-03-23T20:39:35.270Z,27.02
2019-03-23T20:42:01.900Z,26.12
2019-03-23T20:44:28.577Z,27.60
2019-03-23T20:46:55.272Z,27.13
2019-03-23T20:49:22.128Z,27.90
2019-03-23T20:51:49.227Z,28.00
2019-03-23T20:54:15.831Z,28.15
2019-03-23T20:56:42.572Z,28.90
2019-03-23T20:59:09.307Z,30.45
2019-03-23T21:01:35.964Z,31.45
2019-03-23T21:04:03.740Z,30.97
2019-03-23T21:06:30.555Z,31.02
2019-03-23T21:08:57.385Z,34.67
2019-03-23T21:11:24.085Z,34.45
2019-03-23T21:13:50.800Z,32.88
2019-03-23T21:16:17.435Z,35.58
2019-03-23T21:18:44.173Z,33.70
2019-03-23T21:21:10.843Z,32.98
2019-03-23T21:23:37.548Z,30.92
2019-03-23T21:26:04.258Z,29.92
2019-03-23T21:28:32.102Z,30.20
2019-03-23T21:30:58.706Z,31.97
2019-03-23T21:33:31.777Z,31.93
2019-03-23T21:35:54.045Z,30.32
2019-03-23T21:38:20.820Z,30.72
2019-03-23T21:40:47.533Z,30.97
2019-03-23T21:43:14.299Z,31.97
2019-03-23T21:45:40.902Z,30.90
2019-03-23T21:48:07.557Z,32.45
2019-03-23T21:50:34.295Z,32.25
2019-03-23T21:53:00.930Z,30.50
2019-03-23T21:55:27.793Z,30.90
2019-03-23T21:57:54.474Z,31.30
2019-03-23T22:00:29.290Z,36.73
2019-03-23T22:02:55.952Z,34.92
2019-03-23T22:05:22.633Z,38.95
2019-03-23T22:07:49.346Z,30.27
2019-03-23T22:10:16.010Z,29.98
2019-03-23T22:12:42.681Z,28.10
2019-03-23T22:15:09.394Z,29.23
2019-03-23T22:17:36.088Z,28.98
2019-03-23T22:20:06.335Z,28.75
2019-03-23T22:22:33.095Z,26.42
2019-03-23T22:24:59.869Z,28.05
2019-03-23T22:27:26.601Z,28.17
2019-03-23T22:29:53.207Z,26.37
2019-03-23T22:32:19.914Z,26.57
2019-03-23T22:34:46.607Z,25.27
2019-03-23T22:37:13.325Z,25.25
2019-03-23T22:39:40.048Z,25.75
2019-03-23T22:42:06.785Z,25.72
2019-03-23T22:44:33.398Z,24.72
2019-03-23T22:47:00.205Z,26.25
2019-03-23T22:49:26.914Z,25.57
2019-03-23T22:51:53.551Z,27.40
2019-03-23T22:54:20.274Z,25.85
2019-03-23T22:56:46.947Z,26.85
2019-03-23T22:59:15.533Z,27.52
2019-03-23T23:01:42.276Z,28.98
2019-03-23T23:04:09.002Z,29.98
2019-03-23T23:06:35.624Z,32.15
2019-03-23T23:09:03.835Z,33.20
2019-03-23T23:11:30.950Z,30.70
2019-03-23T23:13:57.591Z,29.42
2019-03-23T23:16:24.354Z,30.30
2019-03-23T23:18:51.035Z,30.08
2019-03-23T23:21:17.753Z,28.32
2019-03-23T23:23:44.433Z,28.67
2019-03-23T23:26:11.182Z,27.00
2019-03-23T23:28:37.825Z,25.90
2019-03-23T23:31:04.528Z,28.40
2019-03-23T23:33:31.242Z,28.27
2019-03-23T23:35:57.904Z,29.05
2019-03-23T23:38:24.580Z,29.07
2019-03-23T23:40:51.342Z,29.23
2019-03-23T23:43:18.031Z,27.45
2019-03-23T23:45:44.731Z,28.30
2019-03-23T23:48:11.416Z,26.90
2019-03-23T23:50:38.067Z,29.72
2019-03-23T23:53:04.754Z,28.73
2019-03-23T23:55:31.468Z,27.65
2019-03-23T23:57:58.226Z,27.90
